Time;durP1;ratioP1;P1;durP2;ratioP2;P2;SDS_P1;SDS_P2;PMS_P1;PMS_P2;Temp;Humidity;BMP_temperature;BMP_pressure;BME280_temperature;BME280_humidity;BME280_pressure;Samples;Min_cycle;Max_cycle;Signal;HPM_P1;HPM_P2
2021/09/13 00:00:43;;;;;;;9.07;5.20;;;17.50;96.40;;;;;;4992190;28;20038;-78
2021/09/13 00:03:09;;;;;;;9.20;5.47;;;17.50;96.50;;;;;;4992011;28;20034;-78
2021/09/13 00:05:34;;;;;;;10.07;5.10;;;17.50;96.50;;;;;;4992306;28;20034;-78
2021/09/13 00:08:00;;;;;;;8.98;4.93;;;17.50;96.50;;;;;;4991624;28;20045;-78
2021/09/13 00:10:25;;;;;;;8.25;4.82;;;17.40;96.50;;;;;;4992030;28;20026;-78
2021/09/13 00:12:51;;;;;;;8.93;5.32;;;17.50;96.60;;;;;;4984351;28;20079;-78
2021/09/13 00:15:17;;;;;;;13.90;5.53;;;17.40;96.70;;;;;;4974408;28;20026;-77
2021/09/13 00:17:43;;;;;;;11.68;5.75;;;17.40;96.60;;;;;;4991209;28;20037;-80
2021/09/13 00:20:09;;;;;;;12.00;6.00;;;17.40;96.70;;;;;;4990437;28;20039;-78
2021/09/13 00:22:34;;;;;;;11.77;5.15;;;17.40;96.70;;;;;;4991851;28;20148;-79
2021/09/13 00:25:00;;;;;;;12.35;5.93;;;17.40;96.90;;;;;;4991829;28;20034;-79
2021/09/13 00:27:25;;;;;;;9.30;5.13;;;17.40;96.80;;;;;;4987193;28;20054;-80
2021/09/13 00:29:51;;;;;;;11.25;5.50;;;17.40;96.70;;;;;;4973025;28;20023;-79
2021/09/13 00:32:17;;;;;;;8.60;5.43;;;17.40;96.80;;;;;;4991494;28;20037;-79
2021/09/13 00:34:42;;;;;;;10.38;5.82;;;17.40;96.90;;;;;;4991890;28;20026;-78
2021/09/13 00:37:08;;;;;;;10.85;5.25;;;17.10;97.00;;;;;;4991595;28;20452;-78
2021/09/13 00:39:34;;;;;;;7.72;5.18;;;17.30;97.10;;;;;;4991729;28;20522;-78
2021/09/13 00:41:59;;;;;;;10.80;5.60;;;17.30;97.00;;;;;;4991575;28;20030;-79
2021/09/13 00:44:26;;;;;;;11.25;5.88;;;17.20;97.20;;;;;;4992179;28;20034;-79
2021/09/13 00:46:53;;;;;;;11.18;5.72;;;17.30;97.10;;;;;;4991782;28;20050;-79
2021/09/13 00:49:19;;;;;;;17.67;5.70;;;17.20;97.20;;;;;;4990681;28;20050;-79
2021/09/13 00:51:45;;;;;;;12.38;6.07;;;17.20;97.20;;;;;;4991838;28;20073;-78
2021/09/13 00:54:10;;;;;;;11.40;6.13;;;17.20;97.50;;;;;;4991422;28;20042;-79
2021/09/13 00:56:39;;;;;;;11.27;6.25;;;17.20;97.20;;;;;;4991326;28;20025;-78
2021/09/13 00:59:05;;;;;;;13.10;5.97;;;17.10;97.30;;;;;;4991376;28;20035;-80
2021/09/13 01:01:30;;;;;;;14.32;5.68;;;17.10;97.40;;;;;;4990548;28;20035;-79
2021/09/13 01:03:56;;;;;;;13.93;6.85;;;17.00;97.60;;;;;;4991683;28;20118;-79
2021/09/13 01:06:21;;;;;;;15.35;6.38;;;17.10;97.60;;;;;;4991091;28;20548;-79
2021/09/13 01:08:47;;;;;;;11.30;6.85;;;17.10;97.70;;;;;;4991065;28;20019;-78
2021/09/13 01:11:13;;;;;;;10.85;6.22;;;17.10;97.70;;;;;;4991317;28;20030;-78
2021/09/13 01:13:38;;;;;;;11.57;7.13;;;17.10;97.70;;;;;;4991557;28;20023;-78
2021/09/13 01:16:05;;;;;;;11.48;6.40;;;17.10;97.80;;;;;;4991570;28;20041;-78
2021/09/13 01:18:31;;;;;;;14.52;7.53;;;17.00;97.80;;;;;;4991582;28;20460;-78
2021/09/13 01:20:57;;;;;;;12.75;7.03;;;17.00;97.90;;;;;;4991976;28;20033;-79
2021/09/13 01:23:26;;;;;;;14.85;7.30;;;17.00;97.90;;;;;;4995294;28;20037;-79
2021/09/13 01:25:52;;;;;;;14.02;7.40;;;17.10;98.00;;;;;;4994998;28;20034;-79
2021/09/13 01:28:18;;;;;;;11.48;6.80;;;17.10;98.00;;;;;;4994670;28;20031;-78
2021/09/13 01:30:44;;;;;;;12.25;7.07;;;17.10;97.90;;;;;;4994847;28;20098;-78
2021/09/13 01:33:09;;;;;;;14.50;7.00;;;17.00;98.00;;;;;;4993675;28;20372;-78
2021/09/13 01:35:35;;;;;;;10.60;6.50;;;16.90;98.10;;;;;;4988971;28;20034;-78
2021/09/13 01:38:01;;;;;;;12.55;6.85;;;16.90;98.30;;;;;;4958196;28;20040;-78
2021/09/13 01:40:26;;;;;;;16.90;7.00;;;16.90;98.20;;;;;;4955720;28;20461;-78
2021/09/13 01:42:56;;;;;;;10.75;6.55;;;16.90;98.20;;;;;;4955842;28;20031;-78
2021/09/13 01:45:21;;;;;;;13.13;6.15;;;16.80;98.20;;;;;;4955699;28;20438;-78
2021/09/13 01:47:47;;;;;;;12.52;6.15;;;16.80;98.40;;;;;;4956280;28;20082;-79
2021/09/13 01:50:13;;;;;;;11.48;6.47;;;16.80;98.40;;;;;;4955803;28;20102;-78
2021/09/13 01:52:38;;;;;;;13.85;6.13;;;16.80;98.30;;;;;;4955760;28;20058;-84
2021/09/13 01:55:04;;;;;;;11.73;6.20;;;16.80;98.30;;;;;;4963946;28;20073;-79
2021/09/13 01:57:30;;;;;;;11.05;6.25;;;16.70;98.30;;;;;;4969743;28;20047;-79
2021/09/13 01:59:55;;;;;;;8.23;5.82;;;16.80;98.40;;;;;;4954612;28;20466;-78
2021/09/13 02:02:21;;;;;;;11.38;6.25;;;16.80;98.40;;;;;;4956024;28;20512;-79
2021/09/13 02:04:46;;;;;;;11.57;6.22;;;16.80;98.30;;;;;;4955670;28;20101;-78
2021/09/13 02:07:12;;;;;;;14.82;7.15;;;16.80;98.30;;;;;;4955122;28;20393;-79
2021/09/13 02:09:38;;;;;;;10.93;5.97;;;16.90;98.40;;;;;;4955409;28;20465;-79
2021/09/13 02:12:04;;;;;;;9.50;5.60;;;16.90;98.30;;;;;;4954232;28;20031;-79
2021/09/13 02:14:30;;;;;;;9.48;5.88;;;16.80;98.30;;;;;;4955419;28;20046;-79
2021/09/13 02:16:56;;;;;;;9.48;5.70;;;16.80;98.40;;;;;;4955221;28;20101;-79
2021/09/13 02:19:21;;;;;;;12.48;5.85;;;16.80;98.40;;;;;;4955078;28;20393;-79
2021/09/13 02:21:47;;;;;;;11.40;6.22;;;16.80;98.40;;;;;;4955224;28;20040;-79
2021/09/13 02:24:12;;;;;;;12.40;5.55;;;16.80;98.40;;;;;;4955036;28;20058;-80
2021/09/13 02:26:38;;;;;;;12.25;5.85;;;16.70;98.40;;;;;;4955325;28;20019;-78
2021/09/13 02:29:03;;;;;;;10.35;5.65;;;16.70;98.40;;;;;;4954895;28;20035;-79
2021/09/13 02:31:29;;;;;;;11.00;5.68;;;16.70;98.40;;;;;;4954562;28;20431;-79
2021/09/13 02:33:55;;;;;;;12.85;5.45;;;16.70;98.50;;;;;;4953662;28;20039;-79
2021/09/13 02:36:20;;;;;;;10.68;5.55;;;16.60;98.50;;;;;;4956931;28;20427;-78
2021/09/13 02:38:46;;;;;;;8.63;5.38;;;16.60;98.50;;;;;;4973543;28;20031;-78
2021/09/13 02:41:11;;;;;;;9.50;4.88;;;16.60;98.60;;;;;;4955711;28;20102;-78
2021/09/13 02:43:37;;;;;;;10.02;5.50;;;16.60;98.40;;;;;;4953467;28;20034;-78
2021/09/13 02:46:02;;;;;;;9.18;5.55;;;16.60;98.50;;;;;;4954672;28;20035;-78
2021/09/13 02:48:28;;;;;;;9.23;5.47;;;16.60;98.50;;;;;;4954580;28;20050;-78
2021/09/13 02:50:54;;;;;;;8.60;5.65;;;16.60;98.60;;;;;;4953918;29;20041;-78
2021/09/13 02:53:19;;;;;;;7.57;5.20;;;16.60;98.60;;;;;;4972524;28;20039;-79
2021/09/13 02:55:45;;;;;;;11.07;5.55;;;16.50;98.60;;;;;;4959164;28;20043;-78
2021/09/13 02:58:10;;;;;;;9.73;5.22;;;16.50;98.60;;;;;;4954286;28;20035;-78
2021/09/13 03:00:36;;;;;;;9.25;5.75;;;16.50;98.60;;;;;;4954018;28;20035;-80
2021/09/13 03:03:01;;;;;;;6.68;4.82;;;16.50;98.70;;;;;;4953404;28;20098;-81
2021/09/13 03:05:27;;;;;;;6.78;4.57;;;16.50;98.70;;;;;;4954571;28;20398;-78
2021/09/13 03:07:53;;;;;;;13.48;4.85;;;16.50;98.70;;;;;;4954151;28;20242;-79
2021/09/13 03:10:18;;;;;;;11.60;4.78;;;16.50;98.70;;;;;;4953986;28;20033;-79
2021/09/13 03:12:44;;;;;;;13.50;4.78;;;16.50;98.70;;;;;;4954168;28;20066;-79
2021/09/13 03:15:11;;;;;;;10.88;4.85;;;16.40;98.70;;;;;;4954190;28;20059;-79
2021/09/13 03:17:37;;;;;;;5.97;4.60;;;16.40;98.80;;;;;;4954427;28;20034;-79
2021/09/13 03:20:03;;;;;;;11.55;4.45;;;16.40;98.90;;;;;;4954447;28;20106;-78
2021/09/13 03:22:30;;;;;;;7.85;4.15;;;16.30;98.90;;;;;;4953930;28;20090;-79
2021/09/13 03:24:55;;;;;;;7.57;4.32;;;16.30;98.90;;;;;;4954128;28;20031;-80
2021/09/13 03:27:21;;;;;;;16.67;5.22;;;16.30;98.90;;;;;;4953917;28;20034;-79
2021/09/13 03:29:46;;;;;;;8.32;4.07;;;16.30;99.00;;;;;;4953506;28;20024;-79
2021/09/13 03:32:12;;;;;;;9.15;4.43;;;16.30;99.00;;;;;;4955261;28;20663;-79
2021/09/13 03:34:37;;;;;;;7.63;4.18;;;16.20;99.00;;;;;;4954093;28;20023;-79
2021/09/13 03:37:03;;;;;;;7.80;3.75;;;16.30;99.10;;;;;;4954144;28;20042;-79
2021/09/13 03:39:30;;;;;;;6.60;3.83;;;16.30;99.00;;;;;;4953568;28;20050;-79
2021/09/13 03:41:56;;;;;;;11.07;4.32;;;16.30;98.90;;;;;;4953813;28;20023;-78
2021/09/13 03:44:21;;;;;;;13.70;4.00;;;16.30;98.90;;;;;;4953921;28;20416;-77
2021/09/13 03:46:48;;;;;;;5.93;3.65;;;16.30;98.90;;;;;;4953707;28;20118;-78
2021/09/13 03:49:13;;;;;;;7.82;3.63;;;16.20;99.00;;;;;;4953965;28;20184;-78
2021/09/13 03:51:39;;;;;;;7.85;3.47;;;16.20;99.00;;;;;;4953630;28;20128;-78
2021/09/13 03:54:04;;;;;;;5.93;3.10;;;16.10;99.10;;;;;;4953640;28;20035;-78
2021/09/13 03:56:30;;;;;;;6.90;3.40;;;16.20;99.00;;;;;;4953684;28;20346;-79
2021/09/13 03:58:56;;;;;;;9.20;3.60;;;16.10;99.00;;;;;;4953509;28;20351;-80
2021/09/13 04:01:21;;;;;;;12.00;4.20;;;16.10;99.10;;;;;;4953505;28;20413;-79
2021/09/13 04:03:48;;;;;;;6.82;3.42;;;16.10;99.20;;;;;;4953313;28;20263;-80
2021/09/13 04:06:40;;;;;;;6.35;3.08;;;16.10;99.20;;;;;;4953307;28;22287;-79
2021/09/13 04:11:54;;;;;;;10.40;3.78;;;16.20;99.10;;;;;;4954074;28;20114;-79
2021/09/13 04:14:21;;;;;;;8.88;3.58;;;16.20;99.10;;;;;;4952240;29;20096;-78
2021/09/13 04:16:47;;;;;;;8.87;3.83;;;16.10;99.10;;;;;;4953275;28;20086;-79
2021/09/13 04:19:13;;;;;;;10.18;3.78;;;16.20;99.10;;;;;;4953530;28;20114;-79
2021/09/13 04:21:39;;;;;;;8.85;3.15;;;16.10;99.30;;;;;;4953468;28;20050;-78
2021/09/13 04:24:04;;;;;;;5.40;3.15;;;16.10;99.30;;;;;;4953351;28;20027;-78
2021/09/13 04:26:30;;;;;;;14.18;3.72;;;16.00;99.40;;;;;;4953575;28;20630;-79
2021/09/13 04:28:57;;;;;;;6.53;3.08;;;16.10;99.40;;;;;;4953426;28;20050;-79
2021/09/13 04:31:23;;;;;;;14.32;3.58;;;16.10;99.20;;;;;;4953248;28;20027;-78
2021/09/13 04:33:48;;;;;;;6.20;3.22;;;16.10;99.20;;;;;;4953424;28;20042;-78
2021/09/13 04:36:14;;;;;;;6.50;2.80;;;16.00;99.50;;;;;;4953370;28;20179;-79
2021/09/13 04:38:39;;;;;;;6.88;2.75;;;16.00;99.50;;;;;;4953353;28;20051;-79
2021/09/13 04:41:05;;;;;;;12.23;3.20;;;16.00;99.60;;;;;;4953091;28;20031;-79
2021/09/13 04:43:30;;;;;;;4.20;3.03;;;16.00;99.50;;;;;;4952979;28;20032;-77
2021/09/13 04:45:56;;;;;;;6.93;2.80;;;16.00;99.50;;;;;;4953003;28;20034;-77
2021/09/13 04:48:22;;;;;;;5.15;3.03;;;16.00;99.50;;;;;;4953080;28;20102;-78
2021/09/13 04:50:47;;;;;;;5.38;2.85;;;16.00;99.60;;;;;;4953324;28;20030;-78
2021/09/13 04:53:13;;;;;;;7.97;2.70;;;16.10;99.60;;;;;;4953550;28;20362;-77
2021/09/13 04:55:38;;;;;;;7.97;2.70;;;16.10;99.50;;;;;;4954007;28;20027;-78
2021/09/13 04:58:04;;;;;;;9.00;2.90;;;16.10;99.50;;;;;;4956534;28;20046;-78
2021/09/13 05:00:30;;;;;;;9.95;3.25;;;16.00;99.50;;;;;;4956342;28;20043;-79
2021/09/13 05:02:55;;;;;;;5.75;2.75;;;16.10;99.50;;;;;;4956429;28;20037;-78
2021/09/13 05:05:21;;;;;;;9.45;3.00;;;16.10;99.60;;;;;;4957001;28;20124;-78
2021/09/13 05:07:47;;;;;;;9.63;3.00;;;16.20;99.60;;;;;;4956017;28;20106;-78
2021/09/13 05:10:12;;;;;;;7.13;2.88;;;16.20;99.50;;;;;;4956384;28;20031;-79
2021/09/13 05:12:38;;;;;;;8.20;2.72;;;16.20;99.50;;;;;;4956383;28;20039;-78
2021/09/13 05:15:04;;;;;;;7.68;2.97;;;16.20;99.50;;;;;;4956311;28;20026;-79
2021/09/13 05:17:30;;;;;;;8.25;3.28;;;16.20;99.70;;;;;;4956410;28;20114;-79
2021/09/13 05:19:56;;;;;;;8.73;3.40;;;16.20;99.80;;;;;;4955125;28;20106;-80
2021/09/13 05:22:22;;;;;;;8.02;3.03;;;16.30;99.90;;;;;;4967911;28;20042;-78
2021/09/13 05:24:48;;;;;;;11.00;3.25;;;16.30;99.90;;;;;;4967307;28;20034;-80
2021/09/13 05:27:13;;;;;;;10.50;3.25;;;16.40;99.80;;;;;;4956192;28;20031;-79
2021/09/13 05:29:40;;;;;;;8.88;2.67;;;16.40;99.80;;;;;;4956533;28;20057;-79
2021/09/13 05:32:06;;;;;;;6.32;2.60;;;16.40;99.90;;;;;;4956126;28;20114;-80
2021/09/13 05:34:32;;;;;;;9.18;3.03;;;16.40;99.90;;;;;;4955983;28;20039;-79
2021/09/13 05:36:57;;;;;;;10.02;3.30;;;16.40;99.90;;;;;;4963133;28;20035;-76
2021/09/13 05:39:23;;;;;;;6.97;2.75;;;16.50;99.90;;;;;;4971307;28;20036;-73
2021/09/13 05:41:49;;;;;;;11.35;2.75;;;16.50;99.90;;;;;;4955971;28;20030;-76
2021/09/13 05:44:14;;;;;;;9.45;2.78;;;16.50;99.90;;;;;;4955556;28;20040;-74
2021/09/13 05:46:40;;;;;;;9.13;3.20;;;16.60;99.90;;;;;;4955646;28;20031;-76
2021/09/13 05:49:10;;;;;;;17.30;3.38;;;16.60;99.90;;;;;;4955789;28;20114;-78
2021/09/13 05:51:39;;;;;;;6.00;2.70;;;16.50;99.90;;;;;;4955591;28;20035;-77
2021/09/13 05:54:05;;;;;;;9.85;2.92;;;16.60;99.90;;;;;;4955654;28;20023;-76
2021/09/13 05:56:31;;;;;;;15.30;3.47;;;16.60;99.90;;;;;;4955876;28;20034;-76
2021/09/13 05:58:57;;;;;;;9.75;2.85;;;16.60;99.90;;;;;;4955243;28;20033;-74
2021/09/13 06:01:22;;;;;;;12.60;3.70;;;16.50;99.90;;;;;;4955292;28;20031;-78
2021/09/13 06:03:48;;;;;;;8.57;3.20;;;16.60;99.90;;;;;;4955362;28;20042;-77
2021/09/13 06:06:13;;;;;;;12.50;3.00;;;16.60;99.90;;;;;;4955244;28;20544;-82
2021/09/13 06:08:39;;;;;;;13.43;3.28;;;16.60;99.90;;;;;;4955924;28;20073;-76
2021/09/13 06:11:05;;;;;;;6.07;2.97;;;16.70;99.90;;;;;;4954979;28;20178;-76
2021/09/13 06:13:31;;;;;;;13.35;3.33;;;16.70;99.90;;;;;;4954930;28;20027;-76
2021/09/13 06:15:56;;;;;;;8.63;3.67;;;16.60;99.90;;;;;;4954937;28;20513;-77
2021/09/13 06:18:22;;;;;;;10.68;3.75;;;16.70;99.90;;;;;;4954908;28;20107;-76
2021/09/13 06:20:48;;;;;;;13.43;4.28;;;16.70;99.90;;;;;;4955008;28;20055;-76
2021/09/13 06:23:13;;;;;;;12.90;4.10;;;16.60;99.90;;;;;;4953634;28;20038;-73
2021/09/13 06:25:39;;;;;;;10.77;4.65;;;16.70;99.90;;;;;;4954495;28;20339;-73
2021/09/13 06:28:05;;;;;;;20.70;4.38;;;16.70;99.90;;;;;;4954629;28;20054;-74
2021/09/13 06:30:31;;;;;;;16.83;5.03;;;16.80;99.90;;;;;;4954367;28;20105;-74
2021/09/13 06:32:56;;;;;;;12.55;4.88;;;16.80;99.90;;;;;;4954442;28;20062;-73
2021/09/13 06:35:22;;;;;;;12.50;5.35;;;16.80;99.90;;;;;;4954736;28;20034;-72
2021/09/13 06:37:48;;;;;;;11.85;5.18;;;16.80;99.90;;;;;;4954138;28;20035;-72
2021/09/13 06:40:14;;;;;;;9.95;4.97;;;16.80;99.90;;;;;;4954220;28;20031;-73
2021/09/13 06:42:40;;;;;;;16.10;5.40;;;16.80;99.90;;;;;;4954106;28;20035;-74
2021/09/13 06:45:12;;;;;;;10.68;5.25;;;16.80;99.90;;;;;;4954037;28;20102;-74
2021/09/13 06:47:45;;;;;;;14.88;6.70;;;16.80;99.90;;;;;;4954961;28;20035;-73
2021/09/13 06:50:24;;;;;;;14.77;5.68;;;16.90;99.90;;;;;;4971026;28;20043;-73
2021/09/13 06:52:52;;;;;;;12.57;5.70;;;16.80;99.90;;;;;;4957884;28;20190;-73
2021/09/13 06:55:18;;;;;;;;;;;16.90;99.90;;;;;;4954430;28;20428;-72
2021/09/13 06:57:43;;;;;;;16.85;6.30;;;16.90;99.90;;;;;;4953610;28;19918;-73
2021/09/13 07:00:14;;;;;;;14.57;6.03;;;17.00;99.90;;;;;;4953797;28;20143;-73
2021/09/13 07:02:42;;;;;;;21.05;7.47;;;16.90;99.90;;;;;;4954054;28;20414;-72
2021/09/13 07:05:08;;;;;;;25.80;7.35;;;16.90;99.90;;;;;;4953782;28;20031;-73
2021/09/13 07:07:35;;;;;;;22.10;8.57;;;17.00;99.90;;;;;;4953463;28;20043;-73
2021/09/13 07:10:01;;;;;;;21.58;6.95;;;17.00;99.90;;;;;;4961561;28;20038;-72
2021/09/13 07:12:27;;;;;;;11.30;6.28;;;16.90;99.90;;;;;;4968605;28;20053;-75
2021/09/13 07:14:52;;;;;;;18.15;7.53;;;16.90;99.90;;;;;;4953985;28;20027;-74
2021/09/13 07:17:18;;;;;;;18.33;6.38;;;16.90;99.90;;;;;;4953199;28;20074;-75
2021/09/13 07:19:45;;;;;;;20.42;6.53;;;17.00;99.90;;;;;;4951740;28;20054;-73
2021/09/13 07:22:11;;;;;;;13.68;6.70;;;16.90;99.90;;;;;;4952226;28;20034;-72
2021/09/13 07:24:40;;;;;;;15.90;6.57;;;17.00;99.90;;;;;;4956122;28;20062;-72
2021/09/13 07:27:05;;;;;;;15.65;6.63;;;17.00;99.90;;;;;;4974316;28;20026;-76
2021/09/13 07:29:31;;;;;;;20.67;6.00;;;17.00;99.90;;;;;;4992636;28;20432;-74
2021/09/13 07:32:00;;;;;;;14.82;5.55;;;16.90;99.90;;;;;;4992025;28;20089;-72
2021/09/13 07:34:26;;;;;;;21.63;6.57;;;17.00;99.90;;;;;;4992020;28;20050;-71
2021/09/13 07:36:51;;;;;;;17.05;7.32;;;17.10;99.90;;;;;;4991853;28;20073;-70
2021/09/13 07:39:17;;;;;;;15.68;6.18;;;17.20;99.90;;;;;;4991966;28;20038;-72
2021/09/13 07:41:43;;;;;;;22.80;7.03;;;17.30;99.90;;;;;;4992714;28;20322;-71
2021/09/13 07:44:08;;;;;;;17.98;6.90;;;17.20;99.90;;;;;;4991851;28;20049;-71
2021/09/13 07:46:34;;;;;;;15.18;6.70;;;17.30;99.90;;;;;;4991721;28;20039;-71
2021/09/13 07:49:00;;;;;;;11.55;6.57;;;17.30;99.90;;;;;;4991749;28;20038;-71
2021/09/13 07:51:25;;;;;;;14.05;6.00;;;17.30;99.90;;;;;;4991600;28;20049;-71
2021/09/13 07:53:51;;;;;;;13.98;6.60;;;17.30;99.90;;;;;;4992085;28;20018;-72
2021/09/13 07:56:16;;;;;;;21.13;6.45;;;17.30;99.90;;;;;;4991347;28;20033;-71
2021/09/13 07:58:42;;;;;;;16.75;6.93;;;17.40;99.90;;;;;;4991283;28;20477;-72
2021/09/13 08:01:08;;;;;;;14.30;6.45;;;17.40;99.90;;;;;;4991562;28;20365;-72
2021/09/13 08:03:33;;;;;;;15.05;6.60;;;17.40;99.90;;;;;;4991932;28;20073;-71
2021/09/13 08:05:59;;;;;;;16.50;6.80;;;17.50;99.90;;;;;;4991082;28;20465;-71
2021/09/13 08:08:24;;;;;;;16.85;7.57;;;17.50;99.90;;;;;;4991838;28;20096;-70
2021/09/13 08:10:50;;;;;;;12.48;6.85;;;17.60;99.90;;;;;;4991531;28;20030;-73
2021/09/13 08:13:15;;;;;;;17.52;6.88;;;17.60;99.90;;;;;;4991614;28;20122;-73
2021/09/13 08:15:41;;;;;;;20.08;7.40;;;17.60;99.90;;;;;;4991532;28;20037;-73
2021/09/13 08:18:07;;;;;;;14.50;6.70;;;17.60;99.90;;;;;;4991472;28;20027;-73
2021/09/13 08:20:32;;;;;;;12.45;6.18;;;17.70;99.90;;;;;;4992116;28;20023;-74
2021/09/13 08:22:58;;;;;;;15.23;6.32;;;17.70;99.90;;;;;;4991351;28;20330;-75
2021/09/13 08:25:24;;;;;;;16.85;6.15;;;17.80;99.90;;;;;;4991252;28;20053;-73
2021/09/13 08:27:49;;;;;;;14.98;7.15;;;17.80;99.90;;;;;;4990952;28;20117;-72
2021/09/13 08:30:15;;;;;;;17.10;7.90;;;17.90;99.90;;;;;;4992691;28;20417;-73
2021/09/13 08:32:41;;;;;;;17.70;7.40;;;17.90;99.90;;;;;;4995710;28;20026;-72
2021/09/13 08:35:07;;;;;;;15.30;6.78;;;17.90;99.90;;;;;;4995467;28;20029;-73
2021/09/13 08:37:33;;;;;;;15.90;6.68;;;18.00;99.90;;;;;;4995180;28;20127;-72
2021/09/13 08:39:59;;;;;;;13.73;7.20;;;18.00;99.90;;;;;;4995187;28;20058;-72
2021/09/13 08:42:26;;;;;;;19.45;8.02;;;18.00;99.90;;;;;;4990112;28;20046;-72
2021/09/13 08:44:55;;;;;;;19.42;10.02;;;18.00;99.90;;;;;;4974804;28;20121;-72
2021/09/13 08:47:30;;;;;;;14.38;8.38;;;18.00;99.90;;;;;;4995135;28;20050;-73
2021/09/13 08:50:04;;;;;;;16.95;8.57;;;18.00;99.80;;;;;;4995583;28;20041;-73
2021/09/13 08:52:30;;;;;;;20.20;10.20;;;18.00;99.90;;;;;;4995109;28;20109;-73
2021/09/13 08:54:55;;;;;;;16.23;8.55;;;18.10;99.90;;;;;;4995220;28;20045;-73
2021/09/13 08:57:23;;;;;;;18.10;8.95;;;18.00;99.90;;;;;;4994551;28;20038;-73
2021/09/13 08:59:48;;;;;;;21.85;9.93;;;18.00;99.90;;;;;;4995072;28;20022;-73
2021/09/13 09:02:15;;;;;;;17.52;10.57;;;17.90;99.90;;;;;;4994867;28;20302;-74
2021/09/13 09:04:44;;;;;;;17.95;10.38;;;17.90;99.90;;;;;;4994751;28;20089;-75
2021/09/13 09:07:13;;;;;;;19.13;10.13;;;17.90;99.90;;;;;;4994491;28;20125;-74
2021/09/13 09:09:38;;;;;;;18.50;10.80;;;18.00;99.90;;;;;;4994841;28;20097;-74
2021/09/13 09:12:09;;;;;;;19.38;9.93;;;18.10;99.90;;;;;;4994512;28;20030;-73
2021/09/13 09:14:41;;;;;;;20.67;11.25;;;18.10;99.90;;;;;;4994884;28;20088;-74
2021/09/13 09:17:22;;;;;;;22.42;10.98;;;18.20;99.80;;;;;;4994446;28;20515;-72
2021/09/13 09:19:58;;;;;;;23.17;10.68;;;18.20;99.80;;;;;;4993215;28;20042;-72
2021/09/13 09:22:29;;;;;;;27.08;12.25;;;18.30;99.70;;;;;;4994247;28;20041;-75
2021/09/13 09:24:56;;;;;;;18.00;11.10;;;18.40;99.40;;;;;;4994259;28;20130;-74
2021/09/13 09:27:24;;;;;;;23.90;11.65;;;18.30;99.40;;;;;;4994337;28;20506;-75
2021/09/13 09:29:50;;;;;;;20.90;11.68;;;18.50;99.50;;;;;;4994923;28;20018;-74
2021/09/13 09:32:24;;;;;;;23.63;11.52;;;18.50;99.30;;;;;;4994124;28;20101;-74
2021/09/13 09:34:50;;;;;;;22.02;11.88;;;18.50;99.20;;;;;;4994009;28;20092;-76
2021/09/13 09:37:16;;;;;;;24.70;12.70;;;18.40;99.20;;;;;;4994011;28;20034;-77
2021/09/13 09:39:48;;;;;;;23.40;12.27;;;18.40;99.30;;;;;;4994095;28;20049;-75
2021/09/13 09:42:33;;;;;;;20.75;11.15;;;18.40;99.30;;;;;;4993274;28;20042;-76
2021/09/13 09:45:02;;;;;;;18.70;10.40;;;18.50;99.30;;;;;;4993912;28;20042;-76
2021/09/13 09:47:28;;;;;;;21.38;11.98;;;18.50;99.10;;;;;;4994492;28;20061;-75
2021/09/13 09:49:57;;;;;;;17.88;10.73;;;18.60;99.10;;;;;;4993907;28;20492;-76
2021/09/13 09:52:35;;;;;;;16.27;10.30;;;18.60;99.10;;;;;;4993683;28;20129;-74
2021/09/13 09:55:11;;;;;;;20.65;9.32;;;18.60;99.00;;;;;;4992548;28;20042;-75
2021/09/13 09:57:38;;;;;;;18.30;9.48;;;18.70;98.90;;;;;;4993681;28;20041;-74
2021/09/13 10:00:18;;;;;;;20.25;10.10;;;18.70;98.90;;;;;;4992480;28;20046;-76
2021/09/13 10:02:44;;;;;;;17.33;8.93;;;18.70;98.80;;;;;;4993968;28;20041;-75
2021/09/13 10:05:09;;;;;;;18.02;8.80;;;18.70;98.80;;;;;;4992423;28;20049;-74
2021/09/13 10:07:36;;;;;;;15.98;8.77;;;18.70;98.70;;;;;;4993175;28;20042;-76
2021/09/13 10:10:01;;;;;;;19.73;8.57;;;18.80;98.70;;;;;;4993373;28;20030;-77
2021/09/13 10:12:27;;;;;;;20.15;8.40;;;18.80;98.50;;;;;;4993634;28;20097;-76
2021/09/13 10:14:54;;;;;;;17.23;7.63;;;18.80;98.60;;;;;;4993829;28;20022;-76
2021/09/13 10:17:19;;;;;;;16.60;7.85;;;19.00;98.50;;;;;;4993506;28;20175;-77
2021/09/13 10:19:45;;;;;;;18.00;8.85;;;19.10;98.40;;;;;;4993524;28;20117;-75
2021/09/13 10:22:11;;;;;;;14.32;8.15;;;19.10;98.00;;;;;;4993225;28;20104;-76
2021/09/13 10:24:39;;;;;;;19.35;7.82;;;19.20;98.20;;;;;;4992297;28;20096;-73
2021/09/13 10:27:04;;;;;;;;;;;19.30;98.10;;;;;;4993722;28;20034;-73
2021/09/13 10:29:30;;;;;;;15.88;7.30;;;19.30;97.90;;;;;;4993512;28;20347;-74
2021/09/13 10:32:04;;;;;;;20.55;7.57;;;19.30;97.90;;;;;;4993260;28;20464;-75
2021/09/13 10:34:33;;;;;;;14.90;6.60;;;19.20;97.60;;;;;;4992991;28;20038;-77
2021/09/13 10:37:11;;;;;;;13.82;7.53;;;19.40;97.80;;;;;;4992802;28;20473;-76
2021/09/13 10:39:55;;;;;;;20.50;7.13;;;19.50;97.40;;;;;;4992000;28;20040;-76
2021/09/13 10:42:37;;;;;;;18.38;6.35;;;19.70;97.10;;;;;;4992947;28;20079;-79
2021/09/13 10:45:06;;;;;;;11.63;5.60;;;19.70;97.10;;;;;;4993015;28;20038;-78
2021/09/13 10:47:32;;;;;;;11.00;5.72;;;19.50;96.70;;;;;;4993187;28;20101;-75
2021/09/13 10:50:27;;;;;;;14.40;6.20;;;19.50;97.00;;;;;;4991800;28;20142;-76
2021/09/13 10:52:54;;;;;;;14.20;6.63;;;19.50;96.70;;;;;;4992786;28;20030;-75
2021/09/13 10:55:23;;;;;;;17.75;7.88;;;19.50;96.80;;;;;;4992620;28;20073;-78
2021/09/13 10:57:51;;;;;;;19.33;7.93;;;19.50;97.00;;;;;;4992611;28;20101;-76
2021/09/13 11:00:42;;;;;;;14.07;6.30;;;19.50;97.00;;;;;;4992510;28;20121;-76
2021/09/13 11:06:16;;;;;;;14.35;7.32;;;19.50;97.00;;;;;;4993790;28;20030;-77
2021/09/13 11:08:49;;;;;;;12.60;6.28;;;19.40;96.90;;;;;;4992638;28;20109;-79
2021/09/13 11:11:20;;;;;;;15.43;6.28;;;19.50;97.00;;;;;;4992428;28;20026;-78
2021/09/13 11:13:54;;;;;;;13.48;6.15;;;19.50;96.60;;;;;;4992344;28;20125;-77
2021/09/13 11:16:20;;;;;;;13.75;5.05;;;19.40;96.90;;;;;;4992164;28;20122;-78
2021/09/13 11:18:47;;;;;;;19.05;5.57;;;19.50;96.60;;;;;;4992718;28;20042;-78
2021/09/13 11:21:18;;;;;;;16.65;5.82;;;19.50;96.50;;;;;;4992564;28;20097;-77
2021/09/13 11:23:50;;;;;;;15.98;5.68;;;19.50;96.70;;;;;;4993002;28;20101;-81
2021/09/13 11:26:16;;;;;;;10.70;5.55;;;19.60;96.60;;;;;;4991442;28;20428;-76
2021/09/13 11:29:16;;;;;;;12.50;6.05;;;19.60;96.70;;;;;;4993152;28;20056;-80
2021/09/13 11:31:43;;;;;;;13.98;5.00;;;19.70;96.80;;;;;;4991238;28;20056;-79
2021/09/13 11:34:14;;;;;;;10.80;4.60;;;19.70;96.60;;;;;;4991134;28;20480;-79
2021/09/13 11:37:00;;;;;;;12.85;4.85;;;19.70;96.60;;;;;;4992804;28;20065;-74
2021/09/13 11:39:28;;;;;;;8.18;4.75;;;19.80;96.70;;;;;;4987217;28;20069;-75
2021/09/13 11:42:13;;;;;;;14.55;6.68;;;19.80;96.60;;;;;;4992453;28;20030;-75
2021/09/13 11:45:12;;;;;;;10.80;5.68;;;19.90;96.60;;;;;;4991975;28;20035;-75
2021/09/13 11:47:38;;;;;;;9.55;5.20;;;19.90;96.50;;;;;;4992461;28;20061;-77
2021/09/13 11:50:06;;;;;;;11.15;5.95;;;19.90;96.70;;;;;;4991920;28;20377;-75
2021/09/13 11:52:37;;;;;;;13.63;6.00;;;19.80;96.60;;;;;;4991925;28;20033;-73
2021/09/13 11:55:07;;;;;;;12.20;4.95;;;19.80;96.70;;;;;;4990380;28;20215;-79
2021/09/13 11:57:45;;;;;;;11.35;5.80;;;19.90;96.60;;;;;;4990624;28;20457;-74
2021/09/13 12:00:15;;;;;;;10.73;5.28;;;20.10;96.50;;;;;;4991472;28;20339;-74
2021/09/13 12:02:42;;;;;;;11.82;5.20;;;20.20;96.10;;;;;;4991981;28;20093;-74
2021/09/13 12:05:20;;;;;;;8.13;5.57;;;20.20;96.10;;;;;;4991202;28;20353;-74
2021/09/13 12:07:48;;;;;;;8.38;5.40;;;20.30;95.70;;;;;;4991118;28;20046;-74
2021/09/13 12:10:28;;;;;;;8.10;5.05;;;20.30;94.80;;;;;;4990751;28;20037;-74
2021/09/13 12:13:12;;;;;;;11.65;5.35;;;20.20;95.00;;;;;;4991512;28;20035;-73
2021/09/13 12:15:39;;;;;;;12.82;4.53;;;20.00;94.60;;;;;;4991956;28;20476;-73
2021/09/13 12:18:08;;;;;;;11.10;5.03;;;20.00;94.90;;;;;;4991280;28;20504;-73
2021/09/13 12:20:36;;;;;;;10.30;4.95;;;20.10;95.00;;;;;;4992038;28;20074;-73
2021/09/13 12:23:03;;;;;;;;;;;20.40;95.20;;;;;;4991943;28;20034;-73
2021/09/13 12:25:37;;;;;;;10.30;4.38;;;20.50;94.60;;;;;;4991446;28;20000;-73
2021/09/13 12:28:04;;;;;;;6.63;3.63;;;20.40;93.60;;;;;;4991233;28;20041;-73
2021/09/13 12:30:32;;;;;;;7.70;3.78;;;20.50;94.00;;;;;;4992462;28;20087;-73
2021/09/13 12:33:06;;;;;;;12.05;4.50;;;20.60;94.40;;;;;;4992215;28;20077;-74
2021/09/13 12:35:43;;;;;;;12.02;5.15;;;20.80;94.10;;;;;;4991677;28;20464;-74
2021/09/13 12:38:13;;;;;;;14.98;5.95;;;20.90;94.20;;;;;;4990086;28;20080;-74
2021/09/13 12:40:59;;;;;;;8.27;5.30;;;21.00;94.30;;;;;;4991052;28;20517;-74
2021/09/13 12:43:33;;;;;;;15.68;5.82;;;20.70;94.10;;;;;;4991226;28;20030;-74
2021/09/13 12:46:05;;;;;;;13.77;5.63;;;20.80;94.20;;;;;;4990241;28;20045;-74
2021/09/13 12:48:32;;;;;;;9.98;5.80;;;20.80;94.10;;;;;;4991385;28;20046;-74